sensor_id;sensor_type;location;lat;lon;timestamp;P1;durP1;ratioP1;P2;durP2;ratioP2
42840;SDS011;28491;46.898;7.660;2022-12-10T00:00:38;34.60;;;24.25;;
42840;SDS011;28491;46.898;7.660;2022-12-10T00:03:04;42.13;;;27.48;;
42840;SDS011;28491;46.898;7.660;2022-12-10T00:05:32;42.15;;;26.95;;
42840;SDS011;28491;46.898;7.660;2022-12-10T00:07:58;40.75;;;27.98;;
42840;SDS011;28491;46.898;7.660;2022-12-10T00:10:24;38.08;;;24.05;;
42840;SDS011;28491;46.898;7.660;2022-12-10T00:12:49;33.05;;;22.85;;
42840;SDS011;28491;46.898;7.660;2022-12-10T00:15:15;34.72;;;24.92;;
42840;SDS011;28491;46.898;7.660;2022-12-10T00:17:41;37.50;;;23.17;;
42840;SDS011;28491;46.898;7.660;2022-12-10T00:20:07;31.88;;;24.42;;
42840;SDS011;28491;46.898;7.660;2022-12-10T00:22:33;31.50;;;21.67;;
42840;SDS011;28491;46.898;7.660;2022-12-10T00:24:59;34.03;;;23.63;;
42840;SDS011;28491;46.898;7.660;2022-12-10T00:27:25;33.17;;;22.75;;
42840;SDS011;28491;46.898;7.660;2022-12-10T00:29:50;33.78;;;21.63;;
42840;SDS011;28491;46.898;7.660;2022-12-10T00:32:16;28.58;;;21.73;;
42840;SDS011;28491;46.898;7.660;2022-12-10T00:34:41;32.15;;;22.95;;
42840;SDS011;28491;46.898;7.660;2022-12-10T00:37:07;29.35;;;21.90;;
42840;SDS011;28491;46.898;7.660;2022-12-10T00:39:32;30.83;;;21.33;;
42840;SDS011;28491;46.898;7.660;2022-12-10T00:41:58;28.23;;;21.00;;
42840;SDS011;28491;46.898;7.660;2022-12-10T00:44:23;35.67;;;23.75;;
42840;SDS011;28491;46.898;7.660;2022-12-10T00:46:49;30.42;;;22.27;;
42840;SDS011;28491;46.898;7.660;2022-12-10T00:49:14;29.92;;;21.23;;
42840;SDS011;28491;46.898;7.660;2022-12-10T00:51:40;34.97;;;23.20;;
42840;SDS011;28491;46.898;7.660;2022-12-10T00:54:06;34.80;;;22.95;;
42840;SDS011;28491;46.898;7.660;2022-12-10T00:56:32;33.47;;;21.40;;
42840;SDS011;28491;46.898;7.660;2022-12-10T00:58:58;32.05;;;22.40;;
42840;SDS011;28491;46.898;7.660;2022-12-10T01:03:57;37.45;;;24.52;;
42840;SDS011;28491;46.898;7.660;2022-12-10T01:06:35;33.15;;;23.13;;
42840;SDS011;28491;46.898;7.660;2022-12-10T01:09:05;35.50;;;24.45;;
42840;SDS011;28491;46.898;7.660;2022-12-10T01:11:35;33.88;;;23.88;;
42840;SDS011;28491;46.898;7.660;2022-12-10T01:14:05;34.72;;;23.98;;
42840;SDS011;28491;46.898;7.660;2022-12-10T01:16:34;34.47;;;24.05;;
42840;SDS011;28491;46.898;7.660;2022-12-10T01:19:00;36.67;;;25.98;;
42840;SDS011;28491;46.898;7.660;2022-12-10T01:21:26;36.50;;;23.80;;
42840;SDS011;28491;46.898;7.660;2022-12-10T01:23:54;41.28;;;26.88;;
42840;SDS011;28491;46.898;7.660;2022-12-10T01:26:25;42.20;;;24.50;;
42840;SDS011;28491;46.898;7.660;2022-12-10T01:28:53;38.83;;;25.42;;
42840;SDS011;28491;46.898;7.660;2022-12-10T01:31:23;42.95;;;26.38;;
42840;SDS011;28491;46.898;7.660;2022-12-10T01:33:50;33.53;;;24.58;;
42840;SDS011;28491;46.898;7.660;2022-12-10T01:36:18;33.97;;;24.15;;
42840;SDS011;28491;46.898;7.660;2022-12-10T01:38:48;33.58;;;23.73;;
42840;SDS011;28491;46.898;7.660;2022-12-10T01:41:15;35.53;;;25.20;;
42840;SDS011;28491;46.898;7.660;2022-12-10T01:43:48;34.05;;;23.92;;
42840;SDS011;28491;46.898;7.660;2022-12-10T01:46:14;39.90;;;25.65;;
42840;SDS011;28491;46.898;7.660;2022-12-10T01:48:39;34.58;;;24.25;;
42840;SDS011;28491;46.898;7.660;2022-12-10T01:51:05;35.80;;;24.65;;
42840;SDS011;28491;46.898;7.660;2022-12-10T01:53:31;37.90;;;25.50;;
42840;SDS011;28491;46.898;7.660;2022-12-10T01:55:57;34.80;;;24.02;;
42840;SDS011;28491;46.898;7.660;2022-12-10T01:58:23;40.47;;;25.58;;
42840;SDS011;28491;46.898;7.660;2022-12-10T02:01:06;37.28;;;24.85;;
42840;SDS011;28491;46.898;7.660;2022-12-10T02:04:01;34.38;;;23.77;;
42840;SDS011;28491;46.898;7.660;2022-12-10T02:06:38;42.92;;;27.65;;
42840;SDS011;28491;46.898;7.660;2022-12-10T02:12:51;37.92;;;26.95;;
42840;SDS011;28491;46.898;7.660;2022-12-10T02:17:42;40.00;;;27.85;;
42840;SDS011;28491;46.898;7.660;2022-12-10T02:20:24;38.05;;;26.13;;
42840;SDS011;28491;46.898;7.660;2022-12-10T02:23:03;46.92;;;28.55;;
42840;SDS011;28491;46.898;7.660;2022-12-10T02:25:38;39.35;;;26.15;;
42840;SDS011;28491;46.898;7.660;2022-12-10T02:30:59;37.35;;;25.55;;
42840;SDS011;28491;46.898;7.660;2022-12-10T02:33:25;34.05;;;23.13;;
42840;SDS011;28491;46.898;7.660;2022-12-10T02:35:54;36.22;;;25.13;;
42840;SDS011;28491;46.898;7.660;2022-12-10T02:38:24;33.78;;;24.65;;
42840;SDS011;28491;46.898;7.660;2022-12-10T02:43:21;34.25;;;23.73;;
42840;SDS011;28491;46.898;7.660;2022-12-10T02:45:48;34.33;;;22.73;;
42840;SDS011;28491;46.898;7.660;2022-12-10T02:48:15;33.95;;;24.45;;
42840;SDS011;28491;46.898;7.660;2022-12-10T02:50:41;33.75;;;22.58;;
42840;SDS011;28491;46.898;7.660;2022-12-10T02:53:07;37.58;;;26.30;;
42840;SDS011;28491;46.898;7.660;2022-12-10T02:55:47;39.88;;;26.13;;
42840;SDS011;28491;46.898;7.660;2022-12-10T03:04:44;34.22;;;23.08;;
42840;SDS011;28491;46.898;7.660;2022-12-10T03:07:14;37.30;;;25.30;;
42840;SDS011;28491;46.898;7.660;2022-12-10T03:09:51;35.80;;;24.70;;
42840;SDS011;28491;46.898;7.660;2022-12-10T03:12:28;32.25;;;23.42;;
42840;SDS011;28491;46.898;7.660;2022-12-10T03:15:02;33.65;;;23.65;;
42840;SDS011;28491;46.898;7.660;2022-12-10T03:17:31;35.58;;;24.10;;
42840;SDS011;28491;46.898;7.660;2022-12-10T03:19:57;33.00;;;22.58;;
42840;SDS011;28491;46.898;7.660;2022-12-10T03:22:25;33.78;;;22.55;;
42840;SDS011;28491;46.898;7.660;2022-12-10T03:24:52;35.90;;;25.00;;
42840;SDS011;28491;46.898;7.660;2022-12-10T03:27:19;34.83;;;23.85;;
42840;SDS011;28491;46.898;7.660;2022-12-10T03:29:49;37.13;;;24.58;;
42840;SDS011;28491;46.898;7.660;2022-12-10T03:32:16;36.20;;;23.73;;
42840;SDS011;28491;46.898;7.660;2022-12-10T03:34:45;38.03;;;25.00;;
42840;SDS011;28491;46.898;7.660;2022-12-10T03:37:12;33.38;;;24.60;;
42840;SDS011;28491;46.898;7.660;2022-12-10T03:39:38;33.70;;;23.58;;
42840;SDS011;28491;46.898;7.660;2022-12-10T03:42:05;31.98;;;23.15;;
42840;SDS011;28491;46.898;7.660;2022-12-10T03:44:33;34.08;;;23.45;;
42840;SDS011;28491;46.898;7.660;2022-12-10T03:47:00;29.13;;;20.90;;
42840;SDS011;28491;46.898;7.660;2022-12-10T03:49:28;36.58;;;22.08;;
42840;SDS011;28491;46.898;7.660;2022-12-10T03:51:53;32.53;;;22.67;;
42840;SDS011;28491;46.898;7.660;2022-12-10T03:54:19;29.95;;;20.83;;
42840;SDS011;28491;46.898;7.660;2022-12-10T03:56:45;28.27;;;20.95;;
42840;SDS011;28491;46.898;7.660;2022-12-10T03:59:10;30.98;;;20.98;;
42840;SDS011;28491;46.898;7.660;2022-12-10T04:01:36;28.92;;;21.00;;
42840;SDS011;28491;46.898;7.660;2022-12-10T04:04:05;35.05;;;23.48;;
42840;SDS011;28491;46.898;7.660;2022-12-10T04:08:57;33.83;;;23.00;;
42840;SDS011;28491;46.898;7.660;2022-12-10T04:11:22;40.00;;;23.83;;
42840;SDS011;28491;46.898;7.660;2022-12-10T04:13:48;39.80;;;26.02;;
42840;SDS011;28491;46.898;7.660;2022-12-10T04:16:34;34.75;;;22.95;;
42840;SDS011;28491;46.898;7.660;2022-12-10T04:19:04;40.78;;;26.45;;
42840;SDS011;28491;46.898;7.660;2022-12-10T04:21:31;38.25;;;25.20;;
42840;SDS011;28491;46.898;7.660;2022-12-10T04:24:18;37.60;;;24.02;;
42840;SDS011;28491;46.898;7.660;2022-12-10T04:27:11;36.38;;;24.25;;
42840;SDS011;28491;46.898;7.660;2022-12-10T04:29:48;37.78;;;25.10;;
42840;SDS011;28491;46.898;7.660;2022-12-10T04:32:14;38.00;;;25.63;;
42840;SDS011;28491;46.898;7.660;2022-12-10T04:34:40;34.33;;;23.80;;
42840;SDS011;28491;46.898;7.660;2022-12-10T04:37:06;39.53;;;26.50;;
42840;SDS011;28491;46.898;7.660;2022-12-10T04:39:31;36.17;;;25.25;;
42840;SDS011;28491;46.898;7.660;2022-12-10T04:41:57;40.90;;;27.00;;
42840;SDS011;28491;46.898;7.660;2022-12-10T04:44:24;35.33;;;24.45;;
42840;SDS011;28491;46.898;7.660;2022-12-10T04:46:50;34.30;;;24.90;;
42840;SDS011;28491;46.898;7.660;2022-12-10T04:49:16;32.80;;;22.85;;
42840;SDS011;28491;46.898;7.660;2022-12-10T04:51:42;37.97;;;25.48;;
42840;SDS011;28491;46.898;7.660;2022-12-10T04:54:08;40.13;;;25.42;;
42840;SDS011;28491;46.898;7.660;2022-12-10T04:56:34;36.10;;;24.88;;
42840;SDS011;28491;46.898;7.660;2022-12-10T04:59:00;37.08;;;25.38;;
42840;SDS011;28491;46.898;7.660;2022-12-10T05:01:27;35.08;;;24.63;;
42840;SDS011;28491;46.898;7.660;2022-12-10T05:03:53;30.65;;;22.25;;
42840;SDS011;28491;46.898;7.660;2022-12-10T05:06:19;47.97;;;28.13;;
42840;SDS011;28491;46.898;7.660;2022-12-10T05:08:46;46.75;;;26.70;;
42840;SDS011;28491;46.898;7.660;2022-12-10T05:11:12;36.40;;;24.38;;
42840;SDS011;28491;46.898;7.660;2022-12-10T05:13:40;37.33;;;24.55;;
42840;SDS011;28491;46.898;7.660;2022-12-10T05:16:07;42.05;;;24.58;;
42840;SDS011;28491;46.898;7.660;2022-12-10T05:21:01;38.88;;;23.90;;
42840;SDS011;28491;46.898;7.660;2022-12-10T05:23:27;32.25;;;23.23;;
42840;SDS011;28491;46.898;7.660;2022-12-10T05:28:30;33.53;;;22.92;;
42840;SDS011;28491;46.898;7.660;2022-12-10T05:30:58;34.22;;;23.63;;
42840;SDS011;28491;46.898;7.660;2022-12-10T05:33:24;32.28;;;23.17;;
42840;SDS011;28491;46.898;7.660;2022-12-10T05:35:55;41.70;;;26.08;;
42840;SDS011;28491;46.898;7.660;2022-12-10T05:38:25;40.15;;;24.73;;
42840;SDS011;28491;46.898;7.660;2022-12-10T05:40:52;40.08;;;25.88;;
42840;SDS011;28491;46.898;7.660;2022-12-10T05:43:18;47.47;;;26.05;;
42840;SDS011;28491;46.898;7.660;2022-12-10T05:45:44;40.22;;;25.83;;
42840;SDS011;28491;46.898;7.660;2022-12-10T05:48:11;118.97;;;33.40;;
42840;SDS011;28491;46.898;7.660;2022-12-10T05:50:37;70.43;;;30.15;;
42840;SDS011;28491;46.898;7.660;2022-12-10T05:53:03;41.60;;;24.50;;
42840;SDS011;28491;46.898;7.660;2022-12-10T05:55:29;31.25;;;22.60;;
42840;SDS011;28491;46.898;7.660;2022-12-10T05:57:56;26.50;;;19.52;;
42840;SDS011;28491;46.898;7.660;2022-12-10T06:00:22;31.15;;;20.85;;
42840;SDS011;28491;46.898;7.660;2022-12-10T06:02:48;31.73;;;20.70;;
42840;SDS011;28491;46.898;7.660;2022-12-10T06:05:15;28.63;;;21.95;;
42840;SDS011;28491;46.898;7.660;2022-12-10T06:07:41;34.22;;;22.58;;
42840;SDS011;28491;46.898;7.660;2022-12-10T06:10:06;31.02;;;21.52;;
42840;SDS011;28491;46.898;7.660;2022-12-10T06:12:32;25.90;;;19.40;;
42840;SDS011;28491;46.898;7.660;2022-12-10T06:14:58;27.77;;;19.10;;
42840;SDS011;28491;46.898;7.660;2022-12-10T06:17:24;30.98;;;21.17;;
42840;SDS011;28491;46.898;7.660;2022-12-10T06:19:49;30.08;;;21.38;;
42840;SDS011;28491;46.898;7.660;2022-12-10T06:22:15;35.30;;;22.60;;
42840;SDS011;28491;46.898;7.660;2022-12-10T06:24:40;33.50;;;21.38;;
42840;SDS011;28491;46.898;7.660;2022-12-10T06:27:06;30.98;;;21.98;;
42840;SDS011;28491;46.898;7.660;2022-12-10T06:29:32;27.38;;;20.60;;
42840;SDS011;28491;46.898;7.660;2022-12-10T06:31:57;25.70;;;18.83;;
42840;SDS011;28491;46.898;7.660;2022-12-10T06:34:23;23.25;;;16.08;;
42840;SDS011;28491;46.898;7.660;2022-12-10T06:36:48;25.25;;;17.85;;
42840;SDS011;28491;46.898;7.660;2022-12-10T06:39:14;28.23;;;18.10;;
42840;SDS011;28491;46.898;7.660;2022-12-10T06:41:39;21.60;;;15.40;;
42840;SDS011;28491;46.898;7.660;2022-12-10T06:44:08;18.63;;;14.65;;
42840;SDS011;28491;46.898;7.660;2022-12-10T06:46:35;22.02;;;15.63;;
42840;SDS011;28491;46.898;7.660;2022-12-10T06:49:01;17.75;;;13.70;;
42840;SDS011;28491;46.898;7.660;2022-12-10T06:51:27;15.65;;;11.90;;
42840;SDS011;28491;46.898;7.660;2022-12-10T06:53:53;11.52;;;9.10;;
42840;SDS011;28491;46.898;7.660;2022-12-10T06:56:19;13.63;;;11.30;;
42840;SDS011;28491;46.898;7.660;2022-12-10T06:58:44;19.23;;;15.15;;
42840;SDS011;28491;46.898;7.660;2022-12-10T07:01:12;16.10;;;12.35;;
42840;SDS011;28491;46.898;7.660;2022-12-10T07:03:46;13.85;;;10.18;;
42840;SDS011;28491;46.898;7.660;2022-12-10T07:06:13;14.13;;;11.02;;
42840;SDS011;28491;46.898;7.660;2022-12-10T07:08:39;13.75;;;11.57;;
42840;SDS011;28491;46.898;7.660;2022-12-10T07:11:06;13.68;;;11.35;;
42840;SDS011;28491;46.898;7.660;2022-12-10T07:13:33;13.57;;;12.07;;
42840;SDS011;28491;46.898;7.660;2022-12-10T07:15:59;23.98;;;16.35;;
42840;SDS011;28491;46.898;7.660;2022-12-10T07:18:24;15.05;;;11.35;;
42840;SDS011;28491;46.898;7.660;2022-12-10T07:20:50;13.43;;;10.48;;
42840;SDS011;28491;46.898;7.660;2022-12-10T07:23:16;14.75;;;11.45;;
42840;SDS011;28491;46.898;7.660;2022-12-10T07:25:41;14.25;;;10.93;;
42840;SDS011;28491;46.898;7.660;2022-12-10T07:28:07;16.10;;;11.00;;
42840;SDS011;28491;46.898;7.660;2022-12-10T07:30:33;14.63;;;10.65;;
42840;SDS011;28491;46.898;7.660;2022-12-10T07:32:58;13.27;;;10.90;;
42840;SDS011;28491;46.898;7.660;2022-12-10T07:35:24;15.10;;;10.93;;
42840;SDS011;28491;46.898;7.660;2022-12-10T07:37:50;12.93;;;10.52;;
42840;SDS011;28491;46.898;7.660;2022-12-10T07:40:15;14.50;;;11.68;;
42840;SDS011;28491;46.898;7.660;2022-12-10T07:42:41;13.50;;;10.05;;
42840;SDS011;28491;46.898;7.660;2022-12-10T07:45:06;15.02;;;10.98;;
42840;SDS011;28491;46.898;7.660;2022-12-10T07:47:34;13.57;;;11.15;;
42840;SDS011;28491;46.898;7.660;2022-12-10T07:50:04;16.42;;;11.25;;
42840;SDS011;28491;46.898;7.660;2022-12-10T07:52:30;16.88;;;12.43;;
42840;SDS011;28491;46.898;7.660;2022-12-10T07:54:56;13.75;;;10.45;;
42840;SDS011;28491;46.898;7.660;2022-12-10T07:57:21;14.80;;;10.85;;
42840;SDS011;28491;46.898;7.660;2022-12-10T07:59:47;12.60;;;8.85;;
42840;SDS011;28491;46.898;7.660;2022-12-10T08:02:13;25.25;;;18.42;;
42840;SDS011;28491;46.898;7.660;2022-12-10T08:04:38;25.45;;;18.13;;
42840;SDS011;28491;46.898;7.660;2022-12-10T08:07:04;15.43;;;11.68;;
42840;SDS011;28491;46.898;7.660;2022-12-10T08:09:29;13.85;;;10.77;;
42840;SDS011;28491;46.898;7.660;2022-12-10T08:11:55;13.07;;;10.75;;
42840;SDS011;28491;46.898;7.660;2022-12-10T08:14:21;16.27;;;12.27;;
42840;SDS011;28491;46.898;7.660;2022-12-10T08:16:46;13.93;;;10.23;;
42840;SDS011;28491;46.898;7.660;2022-12-10T08:19:12;11.07;;;8.20;;
42840;SDS011;28491;46.898;7.660;2022-12-10T08:21:37;9.63;;;7.35;;
42840;SDS011;28491;46.898;7.660;2022-12-10T08:24:03;14.00;;;9.15;;
42840;SDS011;28491;46.898;7.660;2022-12-10T08:26:30;10.25;;;8.32;;
42840;SDS011;28491;46.898;7.660;2022-12-10T08:28:56;12.77;;;9.45;;
42840;SDS011;28491;46.898;7.660;2022-12-10T08:31:23;13.02;;;9.23;;
42840;SDS011;28491;46.898;7.660;2022-12-10T08:33:50;14.18;;;9.43;;
42840;SDS011;28491;46.898;7.660;2022-12-10T08:36:16;10.50;;;8.00;;
42840;SDS011;28491;46.898;7.660;2022-12-10T08:38:44;10.18;;;8.13;;
42840;SDS011;28491;46.898;7.660;2022-12-10T08:41:12;11.52;;;7.30;;
42840;SDS011;28491;46.898;7.660;2022-12-10T08:43:39;10.30;;;7.75;;
42840;SDS011;28491;46.898;7.660;2022-12-10T08:46:05;12.20;;;8.23;;
42840;SDS011;28491;46.898;7.660;2022-12-10T08:48:31;15.15;;;9.52;;
42840;SDS011;28491;46.898;7.660;2022-12-10T08:50:58;14.00;;;10.05;;
42840;SDS011;28491;46.898;7.660;2022-12-10T08:53:23;12.23;;;8.63;;
42840;SDS011;28491;46.898;7.660;2022-12-10T08:55:50;10.93;;;8.23;;
42840;SDS011;28491;46.898;7.660;2022-12-10T08:58:16;11.82;;;8.70;;
42840;SDS011;28491;46.898;7.660;2022-12-10T09:00:42;13.00;;;8.52;;
42840;SDS011;28491;46.898;7.660;2022-12-10T09:03:08;17.70;;;12.57;;
42840;SDS011;28491;46.898;7.660;2022-12-10T09:05:34;16.80;;;11.90;;
42840;SDS011;28491;46.898;7.660;2022-12-10T09:08:00;14.85;;;10.00;;
42840;SDS011;28491;46.898;7.660;2022-12-10T09:10:25;17.00;;;11.27;;
42840;SDS011;28491;46.898;7.660;2022-12-10T09:12:51;16.42;;;9.98;;
42840;SDS011;28491;46.898;7.660;2022-12-10T09:15:16;14.65;;;10.95;;
42840;SDS011;28491;46.898;7.660;2022-12-10T09:17:42;17.73;;;11.43;;
42840;SDS011;28491;46.898;7.660;2022-12-10T09:20:07;13.40;;;9.95;;
42840;SDS011;28491;46.898;7.660;2022-12-10T09:22:33;14.65;;;9.90;;
42840;SDS011;28491;46.898;7.660;2022-12-10T09:25:02;16.55;;;11.10;;
42840;SDS011;28491;46.898;7.660;2022-12-10T09:27:29;12.23;;;8.77;;
42840;SDS011;28491;46.898;7.660;2022-12-10T09:29:55;12.90;;;9.27;;
42840;SDS011;28491;46.898;7.660;2022-12-10T09:32:20;10.93;;;8.68;;
42840;SDS011;28491;46.898;7.660;2022-12-10T09:34:46;13.55;;;9.73;;
42840;SDS011;28491;46.898;7.660;2022-12-10T09:37:15;12.18;;;9.02;;
42840;SDS011;28491;46.898;7.660;2022-12-10T09:39:40;13.23;;;8.75;;
42840;SDS011;28491;46.898;7.660;2022-12-10T09:45:09;11.85;;;8.63;;
42840;SDS011;28491;46.898;7.660;2022-12-10T09:50:30;11.50;;;9.13;;
42840;SDS011;28491;46.898;7.660;2022-12-10T09:53:15;11.75;;;8.68;;
42840;SDS011;28491;46.898;7.660;2022-12-10T09:55:45;12.50;;;8.95;;
42840;SDS011;28491;46.898;7.660;2022-12-10T09:58:22;14.27;;;9.55;;
42840;SDS011;28491;46.898;7.660;2022-12-10T10:00:52;13.07;;;9.93;;
42840;SDS011;28491;46.898;7.660;2022-12-10T10:03:22;13.32;;;9.43;;
42840;SDS011;28491;46.898;7.660;2022-12-10T10:05:51;13.57;;;9.45;;
42840;SDS011;28491;46.898;7.660;2022-12-10T10:08:36;13.57;;;9.70;;
42840;SDS011;28491;46.898;7.660;2022-12-10T10:11:08;13.60;;;9.77;;
42840;SDS011;28491;46.898;7.660;2022-12-10T10:13:41;14.18;;;9.88;;
42840;SDS011;28491;46.898;7.660;2022-12-10T10:18:48;12.07;;;10.07;;
42840;SDS011;28491;46.898;7.660;2022-12-10T10:21:27;13.25;;;9.85;;
42840;SDS011;28491;46.898;7.660;2022-12-10T10:23:57;14.73;;;9.98;;
42840;SDS011;28491;46.898;7.660;2022-12-10T10:26:24;14.15;;;10.20;;
42840;SDS011;28491;46.898;7.660;2022-12-10T10:28:52;13.57;;;9.40;;
42840;SDS011;28491;46.898;7.660;2022-12-10T10:31:24;13.35;;;9.40;;
42840;SDS011;28491;46.898;7.660;2022-12-10T10:34:25;12.20;;;8.77;;
42840;SDS011;28491;46.898;7.660;2022-12-10T10:36:46;13.00;;;9.45;;
42840;SDS011;28491;46.898;7.660;2022-12-10T10:41:41;14.07;;;9.70;;
42840;SDS011;28491;46.898;7.660;2022-12-10T10:44:12;13.65;;;10.15;;
42840;SDS011;28491;46.898;7.660;2022-12-10T10:46:41;12.32;;;9.23;;
42840;SDS011;28491;46.898;7.660;2022-12-10T10:49:13;14.82;;;9.70;;
42840;SDS011;28491;46.898;7.660;2022-12-10T10:51:44;20.00;;;13.82;;
42840;SDS011;28491;46.898;7.660;2022-12-10T10:54:10;20.63;;;13.05;;
42840;SDS011;28491;46.898;7.660;2022-12-10T10:56:42;15.25;;;11.10;;
42840;SDS011;28491;46.898;7.660;2022-12-10T11:04:18;15.80;;;10.23;;
42840;SDS011;28491;46.898;7.660;2022-12-10T11:06:50;20.10;;;12.75;;
42840;SDS011;28491;46.898;7.660;2022-12-10T11:09:22;16.95;;;11.20;;
42840;SDS011;28491;46.898;7.660;2022-12-10T11:11:52;16.83;;;11.65;;
42840;SDS011;28491;46.898;7.660;2022-12-10T11:14:25;20.67;;;13.95;;
42840;SDS011;28491;46.898;7.660;2022-12-10T11:17:02;19.80;;;12.23;;
42840;SDS011;28491;46.898;7.660;2022-12-10T11:19:35;15.05;;;11.48;;
42840;SDS011;28491;46.898;7.660;2022-12-10T11:22:16;18.15;;;11.93;;
42840;SDS011;28491;46.898;7.660;2022-12-10T11:24:45;17.25;;;11.45;;
42840;SDS011;28491;46.898;7.660;2022-12-10T11:27:13;14.82;;;10.73;;
42840;SDS011;28491;46.898;7.660;2022-12-10T11:32:35;14.25;;;9.75;;
42840;SDS011;28491;46.898;7.660;2022-12-10T11:36:07;15.60;;;10.20;;
42840;SDS011;28491;46.898;7.660;2022-12-10T11:38:20;25.83;;;14.60;;
42840;SDS011;28491;46.898;7.660;2022-12-10T11:48:49;18.02;;;12.05;;
42840;SDS011;28491;46.898;7.660;2022-12-10T11:59:46;15.43;;;10.50;;
42840;SDS011;28491;46.898;7.660;2022-12-10T12:08:25;15.07;;;11.23;;
42840;SDS011;28491;46.898;7.660;2022-12-10T12:10:54;13.60;;;9.77;;
42840;SDS011;28491;46.898;7.660;2022-12-10T12:13:41;20.27;;;12.35;;
42840;SDS011;28491;46.898;7.660;2022-12-10T12:16:18;17.15;;;12.63;;
42840;SDS011;28491;46.898;7.660;2022-12-10T12:18:59;15.82;;;11.23;;
42840;SDS011;28491;46.898;7.660;2022-12-10T12:21:27;14.70;;;10.93;;
42840;SDS011;28491;46.898;7.660;2022-12-10T12:23:55;14.98;;;9.98;;
42840;SDS011;28491;46.898;7.660;2022-12-10T12:26:32;17.98;;;10.00;;
42840;SDS011;28491;46.898;7.660;2022-12-10T12:31:34;20.65;;;15.52;;
42840;SDS011;28491;46.898;7.660;2022-12-10T12:34:15;18.55;;;12.48;;
42840;SDS011;28491;46.898;7.660;2022-12-10T12:36:45;18.70;;;10.93;;
42840;SDS011;28491;46.898;7.660;2022-12-10T12:39:17;14.75;;;10.65;;
42840;SDS011;28491;46.898;7.660;2022-12-10T12:41:55;18.05;;;11.25;;
42840;SDS011;28491;46.898;7.660;2022-12-10T12:44:33;17.48;;;13.30;;
42840;SDS011;28491;46.898;7.660;2022-12-10T12:47:10;18.17;;;12.20;;
42840;SDS011;28491;46.898;7.660;2022-12-10T12:49:56;15.98;;;11.18;;
42840;SDS011;28491;46.898;7.660;2022-12-10T12:55:15;16.73;;;11.38;;
42840;SDS011;28491;46.898;7.660;2022-12-10T12:57:52;14.63;;;10.35;;
42840;SDS011;28491;46.898;7.660;2022-12-10T13:00:31;16.65;;;11.18;;
42840;SDS011;28491;46.898;7.660;2022-12-10T13:11:36;17.15;;;11.57;;
42840;SDS011;28491;46.898;7.660;2022-12-10T13:21:59;18.95;;;12.25;;
42840;SDS011;28491;46.898;7.660;2022-12-10T13:32:19;16.40;;;11.07;;
42840;SDS011;28491;46.898;7.660;2022-12-10T13:40:21;15.65;;;11.18;;
42840;SDS011;28491;46.898;7.660;2022-12-10T13:43:58;20.95;;;15.13;;
42840;SDS011;28491;46.898;7.660;2022-12-10T13:46:25;16.60;;;11.55;;
42840;SDS011;28491;46.898;7.660;2022-12-10T13:48:55;16.00;;;11.30;;
42840;SDS011;28491;46.898;7.660;2022-12-10T13:56:52;14.95;;;11.55;;
42840;SDS011;28491;46.898;7.660;2022-12-10T14:02:36;21.65;;;13.30;;
42840;SDS011;28491;46.898;7.660;2022-12-10T14:07:38;18.45;;;12.80;;
42840;SDS011;28491;46.898;7.660;2022-12-10T14:12:38;19.40;;;12.88;;
42840;SDS011;28491;46.898;7.660;2022-12-10T14:15:07;20.05;;;12.88;;
42840;SDS011;28491;46.898;7.660;2022-12-10T14:17:40;17.92;;;12.38;;
42840;SDS011;28491;46.898;7.660;2022-12-10T14:20:11;18.33;;;12.65;;
42840;SDS011;28491;46.898;7.660;2022-12-10T14:22:46;17.92;;;13.20;;
42840;SDS011;28491;46.898;7.660;2022-12-10T14:25:15;20.40;;;13.05;;
42840;SDS011;28491;46.898;7.660;2022-12-10T14:27:48;18.83;;;13.48;;
42840;SDS011;28491;46.898;7.660;2022-12-10T14:32:48;18.48;;;12.93;;
42840;SDS011;28491;46.898;7.660;2022-12-10T14:35:16;16.55;;;12.43;;
42840;SDS011;28491;46.898;7.660;2022-12-10T14:37:48;16.02;;;11.55;;
42840;SDS011;28491;46.898;7.660;2022-12-10T14:40:22;18.23;;;11.27;;
42840;SDS011;28491;46.898;7.660;2022-12-10T14:43:02;18.23;;;12.65;;
42840;SDS011;28491;46.898;7.660;2022-12-10T14:48:13;25.67;;;16.33;;
42840;SDS011;28491;46.898;7.660;2022-12-10T14:50:41;22.35;;;15.20;;
42840;SDS011;28491;46.898;7.660;2022-12-10T14:53:11;18.77;;;12.65;;
42840;SDS011;28491;46.898;7.660;2022-12-10T14:55:40;16.92;;;12.23;;
42840;SDS011;28491;46.898;7.660;2022-12-10T14:58:09;19.42;;;12.27;;
42840;SDS011;28491;46.898;7.660;2022-12-10T15:00:42;18.30;;;11.98;;
42840;SDS011;28491;46.898;7.660;2022-12-10T15:03:08;17.48;;;12.82;;
42840;SDS011;28491;46.898;7.660;2022-12-10T15:05:36;20.85;;;14.68;;
42840;SDS011;28491;46.898;7.660;2022-12-10T15:10:34;18.23;;;11.98;;
42840;SDS011;28491;46.898;7.660;2022-12-10T15:13:02;19.83;;;12.25;;
42840;SDS011;28491;46.898;7.660;2022-12-10T15:15:31;19.73;;;11.85;;
42840;SDS011;28491;46.898;7.660;2022-12-10T15:23:17;23.17;;;14.23;;
42840;SDS011;28491;46.898;7.660;2022-12-10T15:25:51;20.02;;;14.15;;
42840;SDS011;28491;46.898;7.660;2022-12-10T15:28:33;21.35;;;13.05;;
42840;SDS011;28491;46.898;7.660;2022-12-10T15:31:09;18.38;;;11.35;;
42840;SDS011;28491;46.898;7.660;2022-12-10T15:38:48;27.38;;;18.30;;
42840;SDS011;28491;46.898;7.660;2022-12-10T15:41:48;23.92;;;16.08;;
42840;SDS011;28491;46.898;7.660;2022-12-10T15:44:27;23.13;;;15.02;;
42840;SDS011;28491;46.898;7.660;2022-12-10T15:47:12;23.17;;;16.75;;
42840;SDS011;28491;46.898;7.660;2022-12-10T15:49:47;23.60;;;15.18;;
42840;SDS011;28491;46.898;7.660;2022-12-10T15:52:15;27.52;;;18.73;;
42840;SDS011;28491;46.898;7.660;2022-12-10T15:54:46;23.30;;;17.23;;
42840;SDS011;28491;46.898;7.660;2022-12-10T15:57:21;27.20;;;18.20;;
42840;SDS011;28491;46.898;7.660;2022-12-10T15:59:50;25.38;;;16.20;;
42840;SDS011;28491;46.898;7.660;2022-12-10T16:02:37;23.25;;;15.80;;
42840;SDS011;28491;46.898;7.660;2022-12-10T16:05:09;25.50;;;16.58;;
42840;SDS011;28491;46.898;7.660;2022-12-10T16:07:37;22.17;;;13.90;;
42840;SDS011;28491;46.898;7.660;2022-12-10T16:10:03;25.30;;;15.45;;
42840;SDS011;28491;46.898;7.660;2022-12-10T16:12:30;27.90;;;17.20;;
42840;SDS011;28491;46.898;7.660;2022-12-10T16:14:57;28.55;;;15.00;;
42840;SDS011;28491;46.898;7.660;2022-12-10T16:17:27;27.27;;;17.13;;
42840;SDS011;28491;46.898;7.660;2022-12-10T16:22:52;23.25;;;14.70;;
42840;SDS011;28491;46.898;7.660;2022-12-10T16:25:19;22.88;;;14.25;;
42840;SDS011;28491;46.898;7.660;2022-12-10T16:27:45;21.85;;;15.00;;
42840;SDS011;28491;46.898;7.660;2022-12-10T16:30:16;25.65;;;15.52;;
42840;SDS011;28491;46.898;7.660;2022-12-10T16:32:42;26.75;;;17.42;;
42840;SDS011;28491;46.898;7.660;2022-12-10T16:35:07;32.85;;;21.25;;
42840;SDS011;28491;46.898;7.660;2022-12-10T16:37:33;28.30;;;18.90;;
42840;SDS011;28491;46.898;7.660;2022-12-10T16:39:59;27.63;;;16.55;;
42840;SDS011;28491;46.898;7.660;2022-12-10T16:42:25;23.70;;;14.80;;
42840;SDS011;28491;46.898;7.660;2022-12-10T16:44:51;24.75;;;15.18;;
42840;SDS011;28491;46.898;7.660;2022-12-10T16:47:16;28.15;;;17.58;;
42840;SDS011;28491;46.898;7.660;2022-12-10T16:49:42;30.20;;;16.27;;
42840;SDS011;28491;46.898;7.660;2022-12-10T16:52:11;28.77;;;17.50;;
42840;SDS011;28491;46.898;7.660;2022-12-10T16:54:40;25.52;;;17.38;;